Time;durP1;ratioP1;P1;durP2;ratioP2;P2;SDS_P1;SDS_P2;PMS_P1;PMS_P2;Temp;Humidity;BMP_temperature;BMP_pressure;BME280_temperature;BME280_humidity;BME280_pressure;Samples;Min_cycle;Max_cycle;Signal;HPM_P1;HPM_P2
2021/09/27 00:01:16;;;;;;;1.90;1.10;;;;;;;23.10;56.51;100004.88;5030464;28;20464;-74
2021/09/27 00:03:42;;;;;;;1.85;1.00;;;;;;;23.09;56.61;100004.06;5030554;28;20033;-75
2021/09/27 00:06:09;;;;;;;5.22;1.02;;;;;;;23.09;56.60;99993.34;5031091;28;20091;-77
2021/09/27 00:08:35;;;;;;;1.95;1.13;;;;;;;23.09;56.63;99973.81;5030523;28;20120;-77
2021/09/27 00:11:09;;;;;;;2.38;0.98;;;;;;;23.09;56.32;99984.50;5012743;28;20120;-67
2021/09/27 00:13:38;;;;;;;2.58;1.27;;;;;;;23.10;56.59;99989.63;5030653;28;20029;-72
2021/09/27 00:16:06;;;;;;;1.48;0.80;;;;;;;23.10;56.48;100003.00;5030626;28;20037;-74
2021/09/27 00:18:32;;;;;;;2.35;1.08;;;;;;;23.09;56.54;100038.81;5030342;28;20033;-76
2021/09/27 00:21:00;;;;;;;2.72;0.95;;;;;;;23.09;56.36;100073.59;5030080;28;20045;-75
2021/09/27 00:23:29;;;;;;;2.03;0.95;;;;;;;23.09;56.53;100097.69;5030223;28;20137;-75
2021/09/27 00:25:54;;;;;;;3.92;1.02;;;;;;;23.08;56.15;100109.44;5013125;28;20040;-76
2021/09/27 00:28:20;;;;;;;1.55;0.90;;;;;;;23.08;55.94;100092.56;5012449;28;20887;-75
2021/09/27 00:30:47;;;;;;;1.52;0.80;;;;;;;23.08;56.02;100082.69;5030425;28;20037;-76
2021/09/27 00:33:13;;;;;;;1.42;0.90;;;;;;;23.06;55.99;100075.94;5029650;28;20457;-77
2021/09/27 00:35:40;;;;;;;1.75;0.90;;;;;;;23.05;56.00;100067.13;5030485;28;20033;-77
2021/09/27 00:38:08;;;;;;;2.80;0.80;;;;;;;23.03;55.94;100071.88;5012609;28;20033;-78
2021/09/27 00:40:41;;;;;;;1.02;0.70;;;;;;;23.02;55.97;100056.88;5030283;28;20117;-78
2021/09/27 00:43:07;;;;;;;1.80;0.80;;;;;;;23.02;56.04;100035.47;5029955;28;20029;-74
2021/09/27 00:45:39;;;;;;;2.30;0.90;;;;;;;23.00;56.19;100033.03;5029747;28;20037;-78
2021/09/27 00:48:06;;;;;;;3.08;1.10;;;;;;;23.00;55.91;100033.03;5029779;28;20108;-76
2021/09/27 00:50:35;;;;;;;2.30;0.90;;;;;;;23.00;56.09;100013.50;5030039;28;20087;-76
2021/09/27 00:53:07;;;;;;;2.35;0.85;;;;;;;23.00;56.22;99994.78;5030205;28;20112;-74
2021/09/27 00:55:32;;;;;;;1.80;0.85;;;;;;;22.99;56.33;99993.16;5012355;28;20072;-75
2021/09/27 00:57:58;;;;;;;1.63;0.90;;;;;;;22.99;56.23;99998.50;5012415;28;20033;-77
2021/09/27 01:00:26;;;;;;;1.23;0.77;;;;;;;22.98;56.15;100013.72;5029233;28;20048;-75
2021/09/27 01:02:52;;;;;;;2.97;1.13;;;;;;;22.99;56.39;100025.25;5029426;28;20063;-78
2021/09/27 01:05:20;;;;;;;2.58;1.10;;;;;;;22.98;56.23;100037.00;5029656;28;20037;-76
2021/09/27 01:08:08;;;;;;;2.03;1.00;;;;;;;22.95;56.04;100046.31;5009113;28;20057;-76
2021/09/27 01:10:55;;;;;;;2.50;1.02;;;;;;;22.95;56.32;100059.69;5029986;28;20481;-77
2021/09/27 01:13:23;;;;;;;3.05;1.10;;;;;;;22.97;56.21;100062.13;5029631;28;20151;-75
2021/09/27 01:16:14;;;;;;;1.92;1.10;;;;;;;22.92;56.04;100070.06;5011547;28;20465;-74
2021/09/27 01:18:55;;;;;;;2.60;1.00;;;;;;;22.91;55.93;100081.81;5029311;28;20068;-74
2021/09/27 01:21:32;;;;;;;3.25;1.00;;;;;;;22.91;55.92;100104.00;5030056;28;20082;-75
2021/09/27 01:24:35;;;;;;;3.45;1.10;;;;;;;22.90;56.16;100112.28;5030266;28;20060;-76
2021/09/27 01:27:34;;;;;;;3.30;1.00;;;;;;;22.88;55.77;100104.50;5029741;28;20114;-69
2021/09/27 01:30:33;;;;;;;3.83;1.20;;;;;;;22.90;55.78;100077.50;5029410;28;20041;-76
2021/09/27 01:33:06;;;;;;;4.35;1.13;;;;;;;22.93;55.58;100069.81;5028389;28;20102;-77
2021/09/27 01:35:38;;;;;;;2.85;1.00;;;;;;;22.94;55.90;100067.94;5029569;28;20033;-76
2021/09/27 01:38:31;;;;;;;5.32;1.10;;;;;;;22.91;55.85;100055.88;5029148;28;20033;-68
2021/09/27 01:41:15;;;;;;;4.03;1.40;;;;;;;22.88;55.78;100042.97;5029479;28;20060;-76
2021/09/27 01:43:46;;;;;;;4.05;1.38;;;;;;;22.92;55.60;100046.78;5028355;28;20129;-77
2021/09/27 01:46:32;;;;;;;3.30;1.20;;;;;;;22.90;55.48;100048.09;5028290;28;20048;-76
2021/09/27 01:49:07;;;;;;;4.68;1.48;;;;;;;22.92;55.68;100027.25;5028813;28;20091;-76
2021/09/27 01:52:01;;;;;;;3.70;1.20;;;;;;;22.89;55.60;100011.69;5011037;28;20037;-72
2021/09/27 01:54:44;;;;;;;2.72;1.10;;;;;;;22.90;55.66;99998.09;5019089;28;20139;-75
2021/09/27 01:57:31;;;;;;;2.10;1.20;;;;;;;22.92;55.51;99992.50;5011278;28;20045;-76
2021/09/27 02:00:12;;;;;;;3.60;1.45;;;;;;;22.90;55.90;99984.72;5028275;28;20030;-75
2021/09/27 02:02:52;;;;;;;2.78;1.20;;;;;;;22.92;55.80;99971.91;5008474;28;20113;-76
2021/09/27 02:05:46;;;;;;;3.78;1.38;;;;;;;22.90;56.02;99965.19;5008468;28;20100;-75
2021/09/27 02:08:37;;;;;;;4.63;1.80;;;;;;;22.89;55.95;99971.59;5008335;28;20161;-75
2021/09/27 02:11:20;;;;;;;4.13;1.55;;;;;;;22.91;56.05;99964.94;5009289;28;20088;-76
2021/09/27 02:14:33;;;;;;;3.33;1.10;;;;;;;22.87;55.94;99995.84;4991452;28;20486;-77
2021/09/27 02:17:24;;;;;;;2.63;1.00;;;;;;;22.89;55.95;100004.47;4948507;29;20340;-77
2021/09/27 02:20:12;;;;;;;2.67;1.02;;;;;;;22.90;55.96;100014.13;4967830;28;20102;-75
2021/09/27 02:22:52;;;;;;;3.05;1.27;;;;;;;22.91;55.88;100012.25;5003201;28;20058;-74
2021/09/27 02:25:31;;;;;;;2.50;0.90;;;;;;;22.91;55.53;99996.22;4988520;28;20216;-76
2021/09/27 02:28:00;;;;;;;2.65;1.15;;;;;;;22.92;55.77;100005.88;5007797;28;20120;-75
2021/09/27 02:30:33;;;;;;;2.97;1.17;;;;;;;22.91;55.90;100012.25;5011967;28;20042;-78
2021/09/27 02:33:27;;;;;;;4.00;1.10;;;;;;;22.85;55.96;100023.91;4993592;28;20061;-75
2021/09/27 02:36:14;;;;;;;3.78;1.25;;;;;;;22.84;55.95;100025.75;5011190;28;20026;-76
2021/09/27 02:38:46;;;;;;;3.47;1.35;;;;;;;22.87;55.62;100024.47;5009459;28;20053;-76
2021/09/27 02:41:23;;;;;;;3.05;1.15;;;;;;;22.89;55.35;100022.41;4991378;28;20030;-76
2021/09/27 02:43:48;;;;;;;3.25;1.13;;;;;;;22.89;55.61;100011.69;5010826;28;20034;-78
2021/09/27 02:46:15;;;;;;;2.40;1.00;;;;;;;22.89;55.39;100014.38;5012698;28;20048;-74
2021/09/27 02:48:47;;;;;;;5.38;1.35;;;;;;;22.88;55.38;99994.84;5012487;28;20050;-77
2021/09/27 02:51:13;;;;;;;2.45;1.05;;;;;;;22.90;55.52;99991.94;4994762;28;20067;-77
2021/09/27 02:53:40;;;;;;;4.28;1.20;;;;;;;22.89;54.89;99987.63;5012334;28;20038;-78
2021/09/27 02:56:27;;;;;;;2.65;1.27;;;;;;;22.88;54.98;99991.31;5012732;28;20029;-78
2021/09/27 02:59:20;;;;;;;3.58;1.20;;;;;;;22.86;54.84;100010.28;5012358;28;20053;-77
2021/09/27 03:02:04;;;;;;;3.25;1.15;;;;;;;22.88;54.79;100012.72;5026483;28;20473;-76
2021/09/27 03:04:43;;;;;;;3.65;1.20;;;;;;;22.86;54.75;99998.78;5031897;28;20033;-77
2021/09/27 03:07:32;;;;;;;4.38;1.33;;;;;;;22.82;54.75;99987.75;5031717;28;20152;-75
2021/09/27 03:10:12;;;;;;;3.47;1.25;;;;;;;22.85;54.54;99986.47;5018777;28;20042;-75
2021/09/27 03:12:51;;;;;;;2.53;1.00;;;;;;;22.84;54.54;99980.28;5032204;28;20033;-76
2021/09/27 03:15:42;;;;;;;4.10;1.10;;;;;;;22.85;54.43;99989.13;5024147;28;20109;-75
2021/09/27 03:18:18;;;;;;;2.97;0.90;;;;;;;22.86;54.62;100012.97;5031785;28;20026;-69
2021/09/27 03:21:05;;;;;;;3.45;1.15;;;;;;;22.82;54.23;100000.28;5031910;28;20040;-78
2021/09/27 03:23:58;;;;;;;3.50;1.00;;;;;;;22.85;54.37;99965.06;5013340;28;20048;-78
2021/09/27 03:26:32;;;;;;;2.45;1.13;;;;;;;22.84;54.13;100008.91;5013708;28;20502;-78
2021/09/27 03:29:03;;;;;;;3.50;1.10;;;;;;;22.86;54.30;100028.19;5031441;28;20040;-75
2021/09/27 03:31:54;;;;;;;2.42;0.90;;;;;;;22.84;54.06;100023.09;5013819;28;20035;-78
2021/09/27 03:34:36;;;;;;;2.05;1.08;;;;;;;22.84;53.81;100024.94;5030752;28;20044;-77
2021/09/27 03:37:09;;;;;;;2.42;0.80;;;;;;;22.83;53.67;100010.75;5031408;28;20036;-74
2021/09/27 03:39:53;;;;;;;4.32;1.50;;;;;;;22.81;53.96;99994.13;5031672;28;20069;-79
2021/09/27 03:42:46;;;;;;;2.08;0.80;;;;;;;22.82;53.58;100019.00;5031055;28;20032;-75
2021/09/27 03:45:25;;;;;;;2.28;0.70;;;;;;;22.80;53.58;100034.47;5013131;28;20056;-77
2021/09/27 03:48:16;;;;;;;4.30;0.95;;;;;;;22.78;53.84;100023.19;5031104;28;20033;-77
2021/09/27 03:50:50;;;;;;;2.60;0.90;;;;;;;22.80;53.30;100018.41;5031184;28;20462;-78
2021/09/27 03:53:25;;;;;;;1.80;0.70;;;;;;;22.81;53.44;100020.03;5031059;28;20064;-78
2021/09/27 03:56:41;;;;;;;2.97;0.98;;;;;;;22.76;53.47;100017.28;5012593;28;20033;-77
2021/09/27 03:59:27;;;;;;;1.35;0.80;;;;;;;22.80;53.13;100029.13;5023348;28;20053;-78
2021/09/27 04:02:07;;;;;;;3.20;1.02;;;;;;;22.78;53.59;100012.50;5012592;28;20037;-78
2021/09/27 04:04:53;;;;;;;4.10;1.00;;;;;;;22.80;53.39;100005.06;5011870;28;20053;-78
2021/09/27 04:07:54;;;;;;;3.03;0.93;;;;;;;22.73;53.47;100015.09;5011306;28;20181;-76
2021/09/27 04:10:32;;;;;;;1.60;0.63;;;;;;;22.77;53.21;100010.88;4949744;29;20046;-77
2021/09/27 04:13:17;;;;;;;1.77;0.70;;;;;;;22.76;52.96;100002.03;5003105;28;20046;-76
2021/09/27 04:16:00;;;;;;;2.80;0.88;;;;;;;22.75;53.09;99997.75;5010775;28;20048;-78
2021/09/27 04:18:34;;;;;;;2.23;1.00;;;;;;;22.76;52.89;100020.75;5010259;28;20033;-78
2021/09/27 04:21:24;;;;;;;1.60;0.60;;;;;;;22.76;53.01;100033.31;5011251;28;20266;-76
2021/09/27 04:24:12;;;;;;;1.63;0.70;;;;;;;22.73;53.03;100028.44;5010514;28;20136;-75
2021/09/27 04:27:16;;;;;;;3.47;0.90;;;;;;;22.70;53.09;100022.50;5010915;28;20030;-75
2021/09/27 04:30:11;;;;;;;2.70;0.93;;;;;;;22.68;52.62;100032.63;5010107;28;20444;-75
2021/09/27 04:33:13;;;;;;;2.30;0.77;;;;;;;22.70;52.98;100017.16;5010478;28;20041;-78
2021/09/27 04:36:10;;;;;;;1.90;0.93;;;;;;;22.66;52.80;99999.97;5010929;28;20066;-73
2021/09/27 04:38:37;;;;;;;2.38;0.93;;;;;;;22.73;52.80;100010.56;5010568;28;20026;-75
2021/09/27 04:41:32;;;;;;;3.17;1.00;;;;;;;22.65;52.44;100013.56;5010435;28;20068;-76
2021/09/27 04:44:43;;;;;;;2.22;1.05;;;;;;;22.63;52.39;100018.34;4992321;28;20065;-74
2021/09/27 04:47:27;;;;;;;1.65;0.70;;;;;;;22.64;52.60;100014.63;5010073;28;20038;-75
2021/09/27 04:50:27;;;;;;;2.90;0.95;;;;;;;22.67;52.54;100014.97;5010158;28;20026;-76
2021/09/27 04:52:55;;;;;;;2.38;0.90;;;;;;;22.67;52.58;100001.59;4949244;29;20139;-77
2021/09/27 04:55:33;;;;;;;2.90;1.05;;;;;;;22.66;52.42;100009.84;4996785;28;20571;-76
2021/09/27 04:58:27;;;;;;;2.53;0.90;;;;;;;22.63;52.51;100007.66;5008937;28;20033;-76
2021/09/27 05:01:12;;;;;;;1.40;0.85;;;;;;;22.66;52.41;100010.66;5010069;28;20033;-77
2021/09/27 05:03:37;;;;;;;;;;;;;;;22.56;52.62;100005.09;5010288;28;20133;-75
2021/09/27 05:06:41;;;;;;;2.45;0.93;;;;;;;22.64;52.13;100006.59;5010473;28;20429;-77
2021/09/27 05:09:23;;;;;;;;;;;;;;;22.56;52.65;100005.09;4987328;28;20050;-76
2021/09/27 05:12:16;;;;;;;1.90;0.75;;;;;;;22.63;52.54;100013.81;5010012;28;19959;-77
2021/09/27 05:14:49;;;;;;;2.45;0.82;;;;;;;22.64;52.25;100026.13;5009497;28;20572;-76
2021/09/27 05:17:33;;;;;;;2.67;0.90;;;;;;;22.61;52.54;100026.59;5009275;28;20026;-70
2021/09/27 05:20:19;;;;;;;1.67;0.73;;;;;;;22.64;51.95;100039.50;5009813;28;20026;-72
2021/09/27 05:23:06;;;;;;;1.67;0.73;;;;;;;22.59;51.94;100044.75;5023440;28;20627;-77
2021/09/27 05:26:01;;;;;;;1.35;0.80;;;;;;;22.57;52.27;100044.16;5011604;28;20476;-76
2021/09/27 05:29:05;;;;;;;3.00;0.95;;;;;;;22.57;51.94;100046.03;5011519;28;20044;-76
2021/09/27 05:31:49;;;;;;;1.90;1.00;;;;;;;22.61;51.80;100045.31;5006540;28;20396;-76
2021/09/27 05:34:36;;;;;;;2.20;0.70;;;;;;;22.57;51.87;100044.16;5029295;28;20091;-76
2021/09/27 05:37:01;;;;;;;1.52;0.77;;;;;;;22.61;51.93;100036.50;5029586;28;20033;-76
2021/09/27 05:40:02;;;;;;;1.83;0.68;;;;;;;22.56;51.81;100042.53;5029247;28;20864;-74
2021/09/27 05:43:15;;;;;;;2.40;0.80;;;;;;;22.55;52.01;100040.09;5028871;28;20037;-77
2021/09/27 05:46:01;;;;;;;3.38;1.08;;;;;;;22.53;51.79;100032.31;5006829;28;20050;-76
2021/09/27 05:48:39;;;;;;;2.38;0.90;;;;;;;22.57;51.78;100028.13;5027916;28;20408;-77
2021/09/27 05:51:16;;;;;;;2.33;0.82;;;;;;;22.54;51.75;100025.91;5028619;28;20076;-75
2021/09/27 05:54:06;;;;;;;1.48;0.80;;;;;;;22.51;51.53;100017.56;5028216;28;20029;-75
2021/09/27 05:56:52;;;;;;;1.83;0.80;;;;;;;22.51;51.50;100018.38;5028356;28;20037;-75
2021/09/27 05:59:43;;;;;;;2.03;0.80;;;;;;;22.55;51.65;100024.03;5027597;28;20067;-71
2021/09/27 06:02:27;;;;;;;3.47;0.90;;;;;;;22.52;52.00;100030.69;5009646;28;20088;-76
2021/09/27 06:04:58;;;;;;;1.87;0.70;;;;;;;22.55;52.34;100032.06;5013873;28;20104;-75
2021/09/27 06:07:37;;;;;;;4.63;1.00;;;;;;;22.57;52.65;100027.31;5014640;28;20033;-78
2021/09/27 06:10:12;;;;;;;1.58;0.80;;;;;;;22.60;52.78;100034.88;5009226;28;20109;-75
2021/09/27 06:12:58;;;;;;;2.25;0.70;;;;;;;22.59;53.14;100031.38;5008958;28;20032;-76
2021/09/27 06:15:33;;;;;;;2.70;0.90;;;;;;;22.64;53.34;100033.34;4976523;28;20026;-72
2021/09/27 06:17:58;;;;;;;;;;;;;;;22.54;53.26;100033.13;5008692;28;20061;-71
2021/09/27 06:20:47;;;;;;;2.28;0.70;;;;;;;22.65;53.53;100041.13;5011998;28;19956;-73
2021/09/27 06:23:41;;;;;;;0.95;0.50;;;;;;;22.62;53.73;100036.25;5011092;28;20041;-71
2021/09/27 06:26:12;;;;;;;3.28;0.80;;;;;;;22.67;54.12;100041.69;5011828;28;20073;-72
2021/09/27 06:28:37;;;;;;;2.15;0.80;;;;;;;22.70;53.68;100040.41;5011392;28;20560;-69
2021/09/27 06:31:21;;;;;;;2.85;0.82;;;;;;;22.70;53.68;100035.88;5012029;28;20068;-71
2021/09/27 06:33:55;;;;;;;2.33;0.70;;;;;;;22.69;53.66;100042.28;5011549;28;20057;-71
2021/09/27 06:36:25;;;;;;;1.52;0.60;;;;;;;22.71;53.77;100040.16;5012320;28;20057;-71
2021/09/27 06:38:57;;;;;;;3.40;1.10;;;;;;;22.73;54.05;100044.50;5012132;28;20030;-72
2021/09/27 06:41:26;;;;;;;3.05;0.73;;;;;;;22.74;53.91;100046.13;5012241;28;20120;-72
2021/09/27 06:43:52;;;;;;;1.77;0.80;;;;;;;22.75;53.83;100039.72;5011653;28;20076;-71
2021/09/27 06:46:19;;;;;;;4.95;0.90;;;;;;;22.76;54.05;100049.38;5012060;28;20045;-71
2021/09/27 06:48:49;;;;;;;1.63;0.80;;;;;;;22.76;54.19;100050.19;5006368;28;20034;-71
2021/09/27 06:51:15;;;;;;;1.38;0.65;;;;;;;22.77;54.45;100056.34;5031906;28;20044;-68
2021/09/27 06:53:40;;;;;;;1.58;0.85;;;;;;;22.77;54.28;100056.34;4990441;28;20045;-70
2021/09/27 06:56:06;;;;;;;1.48;0.68;;;;;;;22.78;54.54;100060.63;4992296;28;20034;-70
2021/09/27 06:58:32;;;;;;;4.22;0.80;;;;;;;22.79;54.60;100059.59;5021185;28;20057;-75
2021/09/27 07:00:58;;;;;;;2.60;0.70;;;;;;;22.80;54.73;100071.91;5018738;28;20065;-74
2021/09/27 07:03:24;;;;;;;3.55;0.80;;;;;;;22.78;54.94;100063.31;5036900;28;20064;-76
2021/09/27 07:05:50;;;;;;;3.03;1.13;;;;;;;22.78;54.94;100072.13;5009695;28;20038;-73
2021/09/27 07:08:18;;;;;;;6.57;1.10;;;;;;;22.78;54.83;100077.50;5011951;28;20022;-76
2021/09/27 07:10:44;;;;;;;7.10;1.27;;;;;;;22.78;55.03;100074.00;5012144;28;20064;-77
2021/09/27 07:13:09;;;;;;;11.30;1.30;;;;;;;22.78;55.32;100076.69;5012356;28;20065;-70
2021/09/27 07:15:34;;;;;;;3.53;0.90;;;;;;;22.76;54.86;100081.44;5028075;28;20120;-70
2021/09/27 07:18:00;;;;;;;9.50;1.38;;;;;;;22.70;54.11;100083.19;4997067;28;20033;-72
2021/09/27 07:20:27;;;;;;;4.97;1.00;;;;;;;22.62;53.37;100088.91;5005315;28;20112;-74
2021/09/27 07:22:57;;;;;;;4.50;0.85;;;;;;;22.55;52.69;100086.34;5011990;28;20144;-74
2021/09/27 07:25:24;;;;;;;6.22;2.25;;;;;;;22.53;52.31;100095.63;5011548;28;20026;-70
2021/09/27 07:27:50;;;;;;;2.70;0.98;;;;;;;22.49;52.17;100095.31;4994237;28;20049;-73
2021/09/27 07:30:17;;;;;;;4.35;0.95;;;;;;;22.45;51.97;100094.16;5010441;28;20046;-78
2021/09/27 07:32:43;;;;;;;6.35;0.95;;;;;;;22.41;51.47;100093.00;5011510;28;20100;-78
2021/09/27 07:35:11;;;;;;;3.28;1.00;;;;;;;22.40;51.53;100096.69;4994144;28;20065;-74
2021/09/27 07:37:38;;;;;;;4.20;1.00;;;;;;;22.38;51.14;100104.13;5011657;28;20461;-76
2021/09/27 07:40:07;;;;;;;3.97;1.02;;;;;;;22.34;51.11;100101.09;5011513;28;20603;-78
2021/09/27 07:42:32;;;;;;;2.63;0.80;;;;;;;22.32;50.95;100105.06;5011330;28;20123;-79
2021/09/27 07:44:58;;;;;;;7.70;0.80;;;;;;;22.31;51.23;100106.09;5009305;28;20030;-78
2021/09/27 07:47:24;;;;;;;4.35;1.10;;;;;;;22.32;50.91;100110.41;5013594;28;20044;-72
2021/09/27 07:49:49;;;;;;;8.13;1.00;;;;;;;22.30;51.15;100102.63;5015898;28;20041;-74
2021/09/27 07:52:15;;;;;;;6.97;1.27;;;;;;;22.28;50.76;100106.56;5011330;28;20446;-79
2021/09/27 07:54:40;;;;;;;5.20;1.15;;;;;;;22.22;50.63;100110.16;5010571;28;20144;-76
2021/09/27 07:57:06;;;;;;;5.38;1.52;;;;;;;22.18;50.51;100111.66;4993639;28;20033;-78
2021/09/27 07:59:31;;;;;;;4.47;1.63;;;;;;;22.14;49.96;100119.34;5008709;28;20539;-74
2021/09/27 08:01:57;;;;;;;4.78;1.30;;;;;;;22.13;49.95;100124.91;5008335;28;20523;-75
2021/09/27 08:04:23;;;;;;;5.90;1.27;;;;;;;22.06;49.80;100138.34;5011688;28;20442;-76
2021/09/27 08:06:48;;;;;;;4.20;0.90;;;;;;;22.04;49.70;100141.22;5011728;28;20396;-74
2021/09/27 08:09:14;;;;;;;4.07;0.80;;;;;;;21.99;49.29;100137.63;5012253;28;20032;-76
2021/09/27 08:11:43;;;;;;;4.15;1.27;;;;;;;21.99;49.07;100150.97;5012206;28;20068;-75
2021/09/27 08:14:13;;;;;;;5.82;1.20;;;;;;;21.97;48.82;100161.88;5030305;28;20037;-76
2021/09/27 08:16:39;;;;;;;3.35;1.00;;;;;;;21.94;48.73;100167.69;5031069;28;20052;-75
2021/09/27 08:19:06;;;;;;;4.30;1.10;;;;;;;21.93;48.74;100166.03;5030326;28;20128;-75
2021/09/27 08:21:32;;;;;;;2.67;0.85;;;;;;;21.92;48.61;100172.41;5030634;28;20152;-79
2021/09/27 08:23:57;;;;;;;3.92;0.90;;;;;;;21.88;48.05;100173.94;5013901;28;20045;-77
2021/09/27 08:26:23;;;;;;;3.25;0.80;;;;;;;21.86;47.89;100165.31;5013333;28;20116;-75
2021/09/27 08:28:49;;;;;;;3.50;1.25;;;;;;;21.83;47.78;100165.78;5030287;28;20041;-74
2021/09/27 08:31:21;;;;;;;2.85;1.00;;;;;;;21.81;48.00;100167.88;5030728;28;20408;-76
2021/09/27 08:33:49;;;;;;;3.42;0.90;;;;;;;21.81;47.69;100166.03;5029673;28;20574;-73
2021/09/27 08:36:17;;;;;;;3.63;1.20;;;;;;;21.81;47.77;100175.88;5030670;28;20073;-74
2021/09/27 08:38:44;;;;;;;2.20;0.70;;;;;;;21.81;47.80;100175.88;5030204;28;20107;-75
2021/09/27 08:41:12;;;;;;;5.50;1.10;;;;;;;21.78;47.62;100179.81;5030317;28;20073;-74
2021/09/27 08:43:40;;;;;;;5.68;1.15;;;;;;;21.78;47.46;100181.69;5029948;28;20051;-73
2021/09/27 08:46:12;;;;;;;4.40;1.10;;;;;;;21.76;47.30;100192.56;5030522;28;20029;-77
2021/09/27 08:49:01;;;;;;;2.80;0.93;;;;;;;21.75;47.26;100195.47;5011888;28;20133;-76
2021/09/27 08:51:28;;;;;;;3.95;1.00;;;;;;;21.76;47.27;100194.41;5030606;28;20038;-74
2021/09/27 08:53:54;;;;;;;5.30;1.20;;;;;;;21.77;47.55;100199.53;5030274;28;20037;-77
2021/09/27 08:56:38;;;;;;;2.50;0.70;;;;;;;21.73;47.44;100213.56;5012342;28;20176;-76
2021/09/27 08:59:29;;;;;;;6.40;1.10;;;;;;;21.68;47.33;100214.25;5029780;28;20053;-76
2021/09/27 09:02:13;;;;;;;3.53;0.93;;;;;;;21.73;47.43;100224.25;5029991;28;20120;-76
2021/09/27 09:04:45;;;;;;;;;;;;;;;21.58;47.56;100231.81;5030020;28;20029;-76
2021/09/27 09:07:16;;;;;;;2.78;0.80;;;;;;;21.68;47.22;100224.09;5029714;28;20007;-77
2021/09/27 09:09:56;;;;;;;4.80;1.02;;;;;;;21.71;47.38;100231.66;5029623;28;20087;-74
2021/09/27 09:12:44;;;;;;;3.70;0.77;;;;;;;21.67;47.11;100236.66;5012059;28;20401;-75
2021/09/27 09:15:21;;;;;;;6.82;0.98;;;;;;;21.72;47.14;100235.97;5029651;28;20038;-76
2021/09/27 09:18:25;;;;;;;4.13;1.00;;;;;;;21.72;47.33;100252.78;5029450;28;20489;-73
2021/09/27 09:20:50;;;;;;;;;;;;;;;21.59;47.32;100244.13;4949208;29;20043;-76
2021/09/27 09:23:22;;;;;;;2.90;1.00;;;;;;;21.67;47.39;100247.31;5013682;28;19917;-75
2021/09/27 09:25:48;;;;;;;4.07;1.15;;;;;;;21.68;46.93;100248.13;5031446;28;20029;-76
2021/09/27 09:28:15;;;;;;;3.47;0.93;;;;;;;21.69;47.00;100249.75;5014309;28;20029;-77
2021/09/27 09:30:54;;;;;;;5.07;0.82;;;;;;;21.69;46.86;100255.09;5031117;28;20041;-75
2021/09/27 09:33:45;;;;;;;5.38;1.10;;;;;;;21.64;46.59;100262.97;5031574;28;20033;-75
2021/09/27 09:36:17;;;;;;;5.25;0.90;;;;;;;21.65;46.92;100262.75;5029779;28;20034;-75
2021/09/27 09:38:45;;;;;;;3.45;0.90;;;;;;;21.67;46.48;100251.84;5029376;28;20068;-76
2021/09/27 09:41:11;;;;;;;4.90;1.00;;;;;;;21.65;46.38;100265.41;5029668;28;20057;-75
2021/09/27 09:43:40;;;;;;;4.15;0.80;;;;;;;21.64;46.34;100269.13;5028620;28;20041;-73
2021/09/27 09:46:14;;;;;;;4.43;0.85;;;;;;;21.64;46.44;100265.63;5029466;28;20029;-75
2021/09/27 09:48:59;;;;;;;6.90;1.17;;;;;;;21.59;46.38;100278.81;5028717;28;20131;-76
2021/09/27 09:51:49;;;;;;;3.30;0.80;;;;;;;21.64;46.61;100277.13;5029397;28;20049;-76
2021/09/27 09:54:22;;;;;;;7.25;0.98;;;;;;;21.64;46.13;100266.47;5028461;28;20060;-75
2021/09/27 09:57:00;;;;;;;5.05;0.85;;;;;;;21.63;46.20;100272.84;5029071;28;20026;-73
2021/09/27 09:59:25;;;;;;;2.83;0.70;;;;;;;21.68;46.12;100280.16;5028692;28;20025;-75
2021/09/27 10:01:54;;;;;;;4.57;1.00;;;;;;;21.69;45.87;100287.13;5028812;28;20095;-75
2021/09/27 10:04:27;;;;;;;3.20;0.90;;;;;;;21.69;46.30;100282.59;5011025;28;20061;-74
2021/09/27 10:07:00;;;;;;;2.97;0.70;;;;;;;21.68;46.15;100283.66;5028779;28;20045;-75
2021/09/27 10:09:25;;;;;;;4.45;0.85;;;;;;;21.70;46.18;100291.44;5029062;28;20025;-75
2021/09/27 10:11:54;;;;;;;3.42;1.02;;;;;;;21.70;45.71;100288.75;5028945;28;20039;-74
2021/09/27 10:14:19;;;;;;;6.10;1.25;;;;;;;21.70;46.10;100289.56;5028418;28;20120;-74
2021/09/27 10:16:52;;;;;;;4.75;1.40;;;;;;;21.65;45.73;100300.13;5028786;28;20108;-75
2021/09/27 10:19:37;;;;;;;5.43;1.10;;;;;;;21.57;45.80;100297.72;5010599;28;20571;-74
2021/09/27 10:22:16;;;;;;;4.97;1.20;;;;;;;21.57;45.37;100297.72;5028813;28;20045;-74
2021/09/27 10:24:49;;;;;;;4.18;1.00;;;;;;;21.61;45.83;100300.75;5028382;28;20115;-75
2021/09/27 10:27:41;;;;;;;5.13;1.10;;;;;;;21.57;45.65;100310.25;5028798;28;20065;-76
2021/09/27 10:30:14;;;;;;;2.47;0.73;;;;;;;21.60;45.53;100313.28;5010846;28;20061;-74
2021/09/27 10:32:45;;;;;;;3.28;1.05;;;;;;;21.60;45.39;100309.81;5022701;28;20524;-73
2021/09/27 10:35:27;;;;;;;2.53;1.00;;;;;;;21.57;45.20;100320.94;5028904;28;20163;-76
2021/09/27 10:38:03;;;;;;;3.63;0.98;;;;;;;21.58;45.33;100325.22;5028319;28;20033;-75
2021/09/27 10:40:30;;;;;;;5.18;0.90;;;;;;;21.60;45.09;100325.81;5011370;28;20218;-75
2021/09/27 10:42:56;;;;;;;4.88;1.00;;;;;;;21.60;45.14;100307.97;5028474;28;20222;-77
2021/09/27 10:45:25;;;;;;;4.10;0.88;;;;;;;21.60;45.04;100318.63;5028482;28;20478;-74
2021/09/27 10:47:54;;;;;;;3.83;1.30;;;;;;;21.60;45.11;100321.31;5028231;28;20130;-75
2021/09/27 10:50:25;;;;;;;4.75;1.05;;;;;;;21.59;45.31;100318.84;5011231;28;20033;-76
2021/09/27 10:52:50;;;;;;;4.10;1.40;;;;;;;21.61;45.16;100322.13;5028578;28;20033;-74
2021/09/27 10:55:34;;;;;;;6.32;1.13;;;;;;;21.58;44.82;100320.72;5028653;28;20039;-76
2021/09/27 10:58:10;;;;;;;3.75;1.05;;;;;;;21.59;44.88;100329.53;5010795;28;20054;-76
2021/09/27 11:00:49;;;;;;;6.75;1.10;;;;;;;21.57;44.71;100326.28;5028493;28;20068;-70
2021/09/27 11:03:22;;;;;;;4.82;1.13;;;;;;;21.59;44.89;100333.00;5029108;28;20029;-75
2021/09/27 11:05:48;;;;;;;8.38;1.20;;;;;;;21.61;44.71;100327.44;5031756;28;20037;-75
2021/09/27 11:08:17;;;;;;;4.18;1.00;;;;;;;21.61;44.71;100330.13;5032439;28;20152;-76
2021/09/27 11:10:45;;;;;;;5.00;1.30;;;;;;;21.56;44.88;100338.81;5031867;28;20029;-77
2021/09/27 11:13:34;;;;;;;5.30;1.08;;;;;;;21.53;44.45;100347.25;5032146;28;20036;-74
2021/09/27 11:16:01;;;;;;;4.40;1.20;;;;;;;21.59;44.67;100343.69;5032129;28;20044;-76
2021/09/27 11:18:30;;;;;;;9.38;1.55;;;;;;;21.59;44.64;100349.03;5014474;28;20033;-76
2021/09/27 11:21:17;;;;;;;2.72;0.88;;;;;;;21.51;44.17;100344.81;5031926;28;20099;-77
2021/09/27 11:23:44;;;;;;;6.20;1.25;;;;;;;21.55;44.30;100345.19;5032170;28;20037;-76
2021/09/27 11:26:19;;;;;;;3.65;1.20;;;;;;;21.50;44.38;100353.03;5014199;28;20050;-74
2021/09/27 11:28:48;;;;;;;3.17;1.08;;;;;;;21.51;43.89;100350.16;5031145;28;20033;-76
2021/09/27 11:31:26;;;;;;;5.97;1.10;;;;;;;21.48;44.12;100355.13;5032095;28;20107;-77
2021/09/27 11:33:57;;;;;;;4.65;1.00;;;;;;;21.52;43.89;100356.31;5031054;28;20037;-76
2021/09/27 11:36:34;;;;;;;5.18;1.20;;;;;;;21.50;43.75;100348.53;5031778;28;20033;-76
2021/09/27 11:39:05;;;;;;;3.22;1.15;;;;;;;21.49;43.80;100354.09;5031423;28;20033;-76
2021/09/27 11:41:35;;;;;;;4.75;1.10;;;;;;;21.51;43.71;100352.00;5013935;28;20091;-76
2021/09/27 11:44:25;;;;;;;3.70;1.08;;;;;;;21.46;43.60;100354.50;5030759;28;20436;-77
2021/09/27 11:47:38;;;;;;;2.70;0.90;;;;;;;21.38;43.42;100355.59;5031287;28;20068;-75
2021/09/27 11:50:10;;;;;;;4.43;1.17;;;;;;;21.44;43.83;100344.03;5013631;28;20060;-75
2021/09/27 11:53:03;;;;;;;4.05;0.98;;;;;;;21.37;43.42;100348.63;5014616;28;20060;-77
2021/09/27 11:55:40;;;;;;;4.07;1.20;;;;;;;21.46;43.56;100351.81;5031561;28;20059;-75
2021/09/27 11:58:27;;;;;;;5.38;1.33;;;;;;;21.46;43.36;100365.16;5013325;28;20033;-75
2021/09/27 12:00:58;;;;;;;2.72;1.10;;;;;;;21.51;43.57;100358.16;5030195;28;20091;-75
2021/09/27 12:03:30;;;;;;;3.03;0.82;;;;;;;21.52;43.33;100374.97;5030758;28;20065;-71
2021/09/27 12:06:09;;;;;;;2.83;0.90;;;;;;;21.49;43.30;100386.09;5021068;28;20255;-75
2021/09/27 12:08:43;;;;;;;2.97;0.88;;;;;;;21.52;43.46;100372.31;5030202;28;20026;-72
2021/09/27 12:11:10;;;;;;;4.63;1.00;;;;;;;21.53;43.31;100373.94;5013145;28;20041;-72